KLM537 EHAM-HRYR

Flight info

Callsign KLM537
Flight time 7h 57m
Altitude 33000
Route WOODY N872 MEDIL/N0468F350 DCT KOVIN DCT DUCRA UM728 RESMI UN857 DISAK DCT DIRMO DCT ETAMO DCT ADEKA DCT MOKDI DCT MEN DCT BADAM DCT FJR DCT DIVKO DCT JUSQO DCT FIRRA DCT SUXER/N0465F370 DCT KAMER UM998 CSO UA605 DJA UB730 DIR UG862 GAMUS/N0469F390 UG862 ONUDA UG655 GOVEL UT325 EDBIV UY476 GOM UB531 RANAG RANAG2A
Aircraft A333/H-SDE3GHIJ2J3J5M1RVWXY/LB2D1

Departure

Time 2026-04-09 22:59
Airport Amsterdam Airport Schiphol (EHAM)

Arrival

Time 2026-04-10 06:56
Airport Kigali International Airport (HRYR)
Time Latitude Longitude Altitude Speed Heading
2026-04-09 22:15 52.31010 4.77119 3 ft 0 kts 183°
2026-04-09 22:19 52.31011 4.77119 3 ft 0 kts 183°
2026-04-09 22:26 52.31012 4.77119 2 ft 0 kts 183°
2026-04-09 22:32 52.31013 4.77119 2 ft 0 kts 183°
2026-04-09 22:40 52.31014 4.77119 2 ft 0 kts 183°
2026-04-09 22:49 52.31018 4.77120 2 ft 3 kts 182°
2026-04-09 22:49 52.31044 4.77116 2 ft 4 kts 165°
2026-04-09 22:49 52.31067 4.77108 2 ft 4 kts 211°
2026-04-09 22:49 52.31078 4.77131 4 ft 4 kts 262°
2026-04-09 22:50 52.31081 4.77157 5 ft 0 kts 257°
2026-04-09 22:52 52.31081 4.77158 5 ft 0 kts 257°
2026-04-09 22:52 52.31081 4.77153 2 ft 1 kts 266°
2026-04-09 22:53 52.31081 4.77131 2 ft 3 kts 270°
2026-04-09 22:53 52.31082 4.77078 2 ft 6 kts 271°
2026-04-09 22:53 52.31082 4.77010 2 ft 6 kts 271°
2026-04-09 22:53 52.31098 4.76955 2 ft 6 kts 314°
2026-04-09 22:54 52.31140 4.76941 2 ft 8 kts 11°
2026-04-09 22:54 52.31198 4.76993 2 ft 10 kts 33°
2026-04-09 22:54 52.31251 4.77049 2 ft 8 kts 33°
2026-04-09 22:54 52.31293 4.77128 2 ft 12 kts 75°
2026-04-09 22:55 52.31292 4.77264 2 ft 12 kts 93°
2026-04-09 22:55 52.31287 4.77396 3 ft 11 kts 93°
2026-04-09 22:55 52.31261 4.77498 3 ft 9 kts 157°
2026-04-09 22:55 52.31188 4.77500 3 ft 14 kts 183°
2026-04-09 22:56 52.31075 4.77489 3 ft 19 kts 183°
2026-04-09 22:56 52.30940 4.77477 3 ft 20 kts 183°
2026-04-09 22:56 52.30806 4.77464 3 ft 19 kts 183°
2026-04-09 22:56 52.30677 4.77461 3 ft 18 kts 167°
2026-04-09 22:57 52.30566 4.77544 3 ft 17 kts 153°
2026-04-09 22:57 52.30469 4.77625 3 ft 12 kts 153°
2026-04-09 22:57 52.30417 4.77635 3 ft 7 kts 214°
2026-04-09 22:57 52.30397 4.77597 2 ft 2 kts 238°
2026-04-09 22:58 52.30360 4.77494 1 ft 32 kts 238°
2026-04-09 22:58 52.30133 4.76905 1 ft 89 kts 238°
2026-04-09 22:58 52.29711 4.75807 2 ft 138 kts 238°
2026-04-09 22:58 52.29125 4.74316 150 ft 166 kts 237°
2026-04-09 22:59 52.28478 4.72792 753 ft 164 kts 240°
2026-04-09 22:59 52.27828 4.71269 1469 ft 160 kts 248°
2026-04-09 22:59 52.27206 4.69795 2018 ft 159 kts 246°
2026-04-09 22:59 52.26382 4.68473 2333 ft 177 kts 223°
2026-04-09 23:00 52.25139 4.67861 2653 ft 201 kts 189°
2026-04-09 23:00 52.23742 4.68493 2985 ft 220 kts 158°
2026-04-09 23:00 52.22369 4.69805 3178 ft 236 kts 154°
2026-04-09 23:00 52.20941 4.71270 3315 ft 255 kts 153°
2026-04-09 23:01 52.19373 4.72871 3532 ft 273 kts 152°
2026-04-09 23:01 52.17742 4.74504 4045 ft 275 kts 157°
2026-04-09 23:01 52.15981 4.75557 4713 ft 267 kts 172°
2026-04-09 23:01 52.14170 4.76244 5378 ft 265 kts 175°
2026-04-09 23:02 52.12369 4.76820 6182 ft 260 kts 176°
2026-04-09 23:02 52.10605 4.77397 6955 ft 257 kts 176°
2026-04-09 23:02 52.08873 4.77997 7606 ft 258 kts 175°
2026-04-09 23:02 52.07108 4.78637 8243 ft 260 kts 173°
2026-04-09 23:03 52.05333 4.79304 8923 ft 262 kts 175°
2026-04-09 23:03 52.03548 4.79979 9557 ft 264 kts 175°
2026-04-09 23:03 52.01756 4.80663 10180 ft 266 kts 175°
2026-04-09 23:03 51.99895 4.81244 10462 ft 275 kts 183°
2026-04-09 23:04 51.97987 4.80957 10666 ft 279 kts 202°
2026-04-09 23:04 51.96178 4.79775 10880 ft 290 kts 210°
2026-04-09 23:04 51.94315 4.78305 11057 ft 305 kts 211°
2026-04-09 23:04 51.92367 4.76739 11251 ft 320 kts 211°
2026-04-09 23:05 51.90328 4.75115 11498 ft 331 kts 210°
2026-04-09 23:05 51.88230 4.73462 11919 ft 338 kts 210°
2026-04-09 23:05 51.86094 4.71788 12389 ft 342 kts 210°
2026-04-09 23:05 51.83942 4.70107 12890 ft 345 kts 210°
2026-04-09 23:06 51.81765 4.68409 13370 ft 349 kts 211°
2026-04-09 23:06 51.79593 4.66716 13835 ft 352 kts 211°
2026-04-09 23:06 51.77365 4.64983 14266 ft 355 kts 211°
2026-04-09 23:06 51.75128 4.63245 14738 ft 357 kts 211°
2026-04-09 23:07 51.72891 4.61509 15223 ft 358 kts 211°
2026-04-09 23:07 51.68381 4.58013 16095 ft 363 kts 212°
2026-04-09 23:07 51.66095 4.56245 16549 ft 365 kts 212°
2026-04-09 23:08 51.63803 4.54476 17005 ft 367 kts 212°
2026-04-09 23:08 51.61485 4.52688 17453 ft 369 kts 212°
2026-04-09 23:08 51.59153 4.50892 17891 ft 371 kts 212°
2026-04-09 23:08 51.56812 4.49091 18316 ft 374 kts 212°
2026-04-09 23:09 51.54457 4.47280 18690 ft 376 kts 212°
2026-04-09 23:09 51.52090 4.45464 19072 ft 377 kts 212°
2026-04-09 23:09 51.49741 4.43664 19449 ft 379 kts 212°
2026-04-09 23:09 51.47351 4.41832 19686 ft 383 kts 212°
2026-04-09 23:10 51.44918 4.39968 19921 ft 389 kts 212°
2026-04-09 23:10 51.42470 4.38099 20306 ft 389 kts 212°
2026-04-09 23:10 51.40023 4.36234 20682 ft 390 kts 212°
2026-04-09 23:10 51.37557 4.34357 21038 ft 392 kts 212°
2026-04-09 23:11 51.35093 4.32483 21384 ft 394 kts 212°
2026-04-09 23:11 51.32637 4.30617 21728 ft 395 kts 212°
2026-04-09 23:11 51.30145 4.28726 22067 ft 397 kts 212°
2026-04-09 23:11 51.27646 4.26828 22396 ft 399 kts 212°
2026-04-09 23:12 51.25122 4.24912 22689 ft 401 kts 212°
2026-04-09 23:12 51.22581 4.22984 22901 ft 405 kts 212°
2026-04-09 23:12 51.20030 4.21051 23218 ft 407 kts 212°
2026-04-09 23:12 51.17482 4.19163 23546 ft 410 kts 209°
2026-04-09 23:13 51.14799 4.17498 23853 ft 414 kts 207°
2026-04-09 23:13 51.12077 4.15919 24114 ft 416 kts 206°
2026-04-09 23:13 51.09333 4.14388 24358 ft 419 kts 206°
2026-04-09 23:13 51.06566 4.12877 24612 ft 420 kts 206°
2026-04-09 23:14 51.03787 4.11372 24867 ft 422 kts 205°
2026-04-09 23:14 51.01040 4.09887 25112 ft 424 kts 205°
2026-04-09 23:14 50.98238 4.08369 25364 ft 425 kts 205°
2026-04-09 23:14 50.95423 4.06842 25614 ft 427 kts 205°
2026-04-09 23:15 50.92600 4.05308 25865 ft 428 kts 205°
2026-04-09 23:15 50.89776 4.03773 26108 ft 430 kts 205°
2026-04-09 23:15 50.86949 4.02183 26338 ft 430 kts 207°
2026-04-09 23:15 50.84190 4.00492 26573 ft 430 kts 208°
2026-04-09 23:16 50.81405 3.98707 26811 ft 431 kts 208°
2026-04-09 23:16 50.78619 3.96889 26910 ft 435 kts 208°
2026-04-09 23:16 50.75810 3.95052 27085 ft 437 kts 208°
2026-04-09 23:16 50.72986 3.93219 27328 ft 438 kts 208°
2026-04-09 23:17 50.70155 3.91396 27581 ft 440 kts 208°
2026-04-09 23:17 50.67352 3.89601 27778 ft 441 kts 208°
2026-04-09 23:17 50.64493 3.87780 28025 ft 443 kts 208°
2026-04-09 23:17 50.61627 3.85960 28240 ft 444 kts 208°
2026-04-09 23:18 50.58752 3.84137 28453 ft 445 kts 208°
2026-04-09 23:18 50.53036 3.80366 28712 ft 450 kts 209°
2026-04-09 23:18 50.50154 3.78394 28933 ft 450 kts 210°
2026-04-09 23:19 50.47277 3.76415 29152 ft 452 kts 210°
2026-04-09 23:19 50.44397 3.74435 29344 ft 453 kts 210°
2026-04-09 23:19 50.41498 3.72451 29609 ft 453 kts 209°
2026-04-09 23:19 50.38609 3.70482 29926 ft 452 kts 209°
2026-04-09 23:20 50.35727 3.68525 30203 ft 451 kts 210°
2026-04-09 23:20 50.29966 3.64622 30495 ft 454 kts 210°
2026-04-09 23:20 50.27071 3.62669 30768 ft 453 kts 210°
2026-04-09 23:21 50.24176 3.60720 31033 ft 451 kts 210°
2026-04-09 23:21 50.21289 3.58779 31276 ft 450 kts 210°
2026-04-09 23:21 50.19383 3.57497 31422 ft 450 kts 210°
2026-04-09 23:21 50.16498 3.55559 31676 ft 449 kts 210°
2026-04-09 23:22 50.12695 3.53007 31918 ft 449 kts 210°
2026-04-09 23:22 50.07877 3.49778 32181 ft 450 kts 210°
2026-04-09 23:22 50.05000 3.47854 32428 ft 449 kts 210°
2026-04-09 23:23 50.02167 3.45964 32679 ft 448 kts 210°
2026-04-09 23:23 49.99305 3.44057 32871 ft 447 kts 210°
2026-04-09 23:23 49.96439 3.42149 33080 ft 447 kts 210°
2026-04-09 23:23 49.93580 3.40248 33273 ft 446 kts 210°
2026-04-09 23:24 49.90723 3.38350 33438 ft 446 kts 210°
2026-04-09 23:24 49.84985 3.34543 33701 ft 448 kts 210°
2026-04-09 23:24 49.82159 3.32674 33885 ft 447 kts 210°
2026-04-09 23:25 49.79294 3.30782 34088 ft 446 kts 210°
2026-04-09 23:25 49.76432 3.28894 34246 ft 446 kts 210°
2026-04-09 23:25 49.73577 3.27013 34366 ft 446 kts 210°
2026-04-09 23:25 49.70718 3.25131 34477 ft 447 kts 210°
2026-04-09 23:26 49.67849 3.23243 34469 ft 449 kts 210°
2026-04-09 23:26 49.62058 3.19439 34610 ft 452 kts 209°
2026-04-09 23:26 49.59195 3.17565 34745 ft 452 kts 209°
2026-04-09 23:27 49.56296 3.15672 34870 ft 452 kts 209°
2026-04-09 23:27 49.50503 3.11876 35118 ft 450 kts 211°
2026-04-09 23:28 49.45114 3.07133 35161 ft 446 kts 218°
2026-04-09 23:28 49.39913 3.01916 35165 ft 446 kts 220°
2026-04-09 23:29 49.34777 2.96658 35168 ft 446 kts 220°
2026-04-09 23:29 49.29599 2.91384 35166 ft 446 kts 219°
2026-04-09 23:30 49.24409 2.86139 35159 ft 447 kts 219°
2026-04-09 23:30 49.19229 2.80926 35177 ft 449 kts 219°
2026-04-09 23:31 49.13999 2.75681 35180 ft 449 kts 219°
2026-04-09 23:31 49.08762 2.70442 35182 ft 449 kts 219°
2026-04-09 23:32 49.03561 2.65250 35173 ft 450 kts 219°
2026-04-09 23:32 48.98296 2.60003 35182 ft 454 kts 220°
2026-04-09 23:33 48.92992 2.54731 35185 ft 456 kts 220°
2026-04-09 23:33 48.87672 2.49462 35210 ft 455 kts 220°
2026-04-09 23:34 48.82387 2.44241 35182 ft 455 kts 220°
2026-04-09 23:34 48.77069 2.38999 35183 ft 455 kts 219°
2026-04-09 23:35 48.71751 2.33771 35186 ft 455 kts 219°
2026-04-09 23:35 48.66455 2.28576 35184 ft 455 kts 219°
2026-04-09 23:36 48.61126 2.23362 35175 ft 456 kts 219°
2026-04-09 23:36 48.55385 2.19007 35182 ft 470 kts 204°
2026-04-09 23:37 48.49044 2.16515 35181 ft 476 kts 199°
2026-04-09 23:37 48.42537 2.14447 35180 ft 478 kts 198°
2026-04-09 23:38 48.35999 2.12428 35185 ft 480 kts 198°
2026-04-09 23:38 48.29402 2.10672 35184 ft 487 kts 190°
2026-04-09 23:39 48.22554 2.11141 35187 ft 497 kts 179°
2026-04-09 23:39 48.15717 2.12511 35192 ft 500 kts 177°
2026-04-09 23:40 48.08790 2.13381 35202 ft 496 kts 182°
2026-04-09 23:40 48.01916 2.13881 35208 ft 493 kts 184°
2026-04-09 23:41 47.95106 2.14271 35208 ft 493 kts 184°
2026-04-09 23:41 47.88228 2.14652 35213 ft 494 kts 184°
2026-04-09 23:42 47.81342 2.15047 35209 ft 494 kts 184°
2026-04-09 23:42 47.74504 2.15445 35183 ft 495 kts 183°
2026-04-09 23:43 47.67592 2.15847 35179 ft 496 kts 183°
2026-04-09 23:43 47.60686 2.16249 35179 ft 496 kts 183°
2026-04-09 23:44 47.53816 2.16648 35176 ft 497 kts 183°
2026-04-09 23:44 47.46890 2.17047 35173 ft 498 kts 183°
2026-04-09 23:45 47.39951 2.17447 35168 ft 498 kts 183°
2026-04-09 23:45 47.33060 2.17843 35159 ft 498 kts 183°
2026-04-09 23:46 47.26102 2.18240 35167 ft 500 kts 182°
2026-04-09 23:46 47.19137 2.18639 35165 ft 500 kts 182°
2026-04-09 23:47 47.12217 2.19069 35161 ft 502 kts 179°
2026-04-09 23:47 47.05339 2.21358 35154 ft 511 kts 164°
2026-04-09 23:48 46.98656 2.25054 35156 ft 513 kts 161°
2026-04-09 23:48 46.92064 2.28979 35148 ft 514 kts 161°
2026-04-09 23:49 46.85443 2.32980 35151 ft 515 kts 156°
2026-04-09 23:49 46.79234 2.38276 35159 ft 518 kts 149°
2026-04-09 23:50 46.73174 2.44000 35152 ft 518 kts 148°
2026-04-09 23:50 46.67170 2.49765 35149 ft 519 kts 148°
2026-04-09 23:51 46.61126 2.55532 35148 ft 519 kts 148°
2026-04-09 23:51 46.55080 2.61257 35140 ft 519 kts 148°
2026-04-09 23:52 46.49019 2.66970 35146 ft 519 kts 148°
2026-04-09 23:52 46.42959 2.72666 35150 ft 519 kts 148°
2026-04-09 23:53 46.36886 2.78361 35138 ft 519 kts 148°
2026-04-09 23:53 46.30823 2.84030 35144 ft 516 kts 148°
2026-04-09 23:54 46.24848 2.89605 35141 ft 513 kts 148°
2026-04-09 23:54 46.18842 2.95192 35146 ft 514 kts 148°
2026-04-09 23:55 46.12819 3.00781 35123 ft 514 kts 148°
2026-04-09 23:55 46.06794 3.06357 35146 ft 513 kts 148°
2026-04-09 23:56 46.00821 3.11870 35150 ft 513 kts 148°
2026-04-09 23:56 45.94484 3.16475 35161 ft 508 kts 165°
2026-04-09 23:56 45.91065 3.17614 35151 ft 501 kts 176°
2026-04-09 23:57 45.87603 3.17972 35157 ft 497 kts 181°
2026-04-09 23:57 45.80694 3.18017 35157 ft 496 kts 184°
2026-04-09 23:58 45.73819 3.17821 35156 ft 496 kts 185°
2026-04-09 23:58 45.66915 3.17654 35151 ft 494 kts 184°
2026-04-09 23:59 45.60068 3.17543 35154 ft 493 kts 184°
2026-04-09 23:59 45.53199 3.17452 35151 ft 494 kts 184°
2026-04-10 00:00 45.46334 3.17365 35167 ft 490 kts 184°
2026-04-10 00:00 45.39505 3.17277 35170 ft 490 kts 184°
2026-04-10 00:01 45.32713 3.17187 35167 ft 490 kts 184°
2026-04-10 00:01 45.25913 3.17093 35177 ft 487 kts 184°
2026-04-10 00:02 45.19130 3.17004 35179 ft 487 kts 184°
2026-04-10 00:02 45.12345 3.16916 35176 ft 487 kts 184°
2026-04-10 00:03 45.05611 3.16828 35181 ft 486 kts 184°
2026-04-10 00:03 44.98842 3.16739 35181 ft 486 kts 184°
2026-04-10 00:04 44.92061 3.16649 35180 ft 486 kts 184°
2026-04-10 00:04 44.85280 3.16562 35180 ft 486 kts 184°
2026-04-10 00:05 44.78561 3.16474 35181 ft 486 kts 184°
2026-04-10 00:05 44.71790 3.16385 35177 ft 486 kts 184°
2026-04-10 00:06 44.65004 3.16297 35178 ft 486 kts 184°
2026-04-10 00:06 44.58226 3.16250 35173 ft 487 kts 182°
2026-04-10 00:07 44.51482 3.16348 35169 ft 487 kts 182°
2026-04-10 00:07 44.44681 3.16478 35170 ft 487 kts 182°
2026-04-10 00:08 44.39035 3.16579 35169 ft 487 kts 182°
2026-04-10 00:08 44.32241 3.16692 35165 ft 487 kts 182°
2026-04-10 00:09 44.25442 3.16798 35163 ft 488 kts 182°
2026-04-10 00:09 44.18691 3.16902 35163 ft 488 kts 182°
2026-04-10 00:10 44.11962 3.18132 35157 ft 490 kts 164°
2026-04-10 00:10 44.05859 3.22335 35146 ft 492 kts 142°
2026-04-10 00:11 44.01006 3.28959 35154 ft 493 kts 131°
2026-04-10 00:11 43.96516 3.36190 35130 ft 493 kts 130°
2026-04-10 00:12 43.92084 3.43426 35123 ft 491 kts 130°
2026-04-10 00:12 43.87641 3.50565 35123 ft 491 kts 130°
2026-04-10 00:13 43.83138 3.57711 35107 ft 491 kts 130°
2026-04-10 00:13 43.78621 3.64844 35108 ft 492 kts 130°
2026-04-10 00:14 43.74132 3.71917 35099 ft 491 kts 131°
2026-04-10 00:14 43.69612 3.79026 35097 ft 491 kts 131°
2026-04-10 00:15 43.65093 3.86117 35080 ft 491 kts 131°
2026-04-10 00:15 43.58329 3.96697 35078 ft 491 kts 131°
2026-04-10 00:16 43.53797 4.03757 35078 ft 491 kts 131°
2026-04-10 00:16 43.49253 4.10809 35074 ft 491 kts 131°
2026-04-10 00:17 43.44733 4.17808 35064 ft 491 kts 131°
2026-04-10 00:17 43.40181 4.24839 35068 ft 493 kts 131°
2026-04-10 00:18 43.35605 4.31891 35059 ft 494 kts 131°
2026-04-10 00:18 43.31026 4.38932 35064 ft 493 kts 132°
2026-04-10 00:19 43.26465 4.45926 35056 ft 493 kts 132°
2026-04-10 00:19 43.21899 4.52912 35061 ft 493 kts 132°
2026-04-10 00:20 43.17314 4.59910 35061 ft 493 kts 132°
2026-04-10 00:20 43.12716 4.66909 35052 ft 493 kts 133°
2026-04-10 00:21 43.08069 4.73744 35055 ft 492 kts 139°
2026-04-10 00:21 43.02421 4.78896 35056 ft 487 kts 159°
2026-04-10 00:22 42.96081 4.82118 35056 ft 486 kts 163°
2026-04-10 00:22 42.89633 4.84934 35058 ft 486 kts 165°
2026-04-10 00:23 42.83211 4.87697 35059 ft 487 kts 165°
2026-04-10 00:23 42.76755 4.90522 35046 ft 487 kts 164°
2026-04-10 00:24 42.70271 4.93175 35060 ft 485 kts 168°
2026-04-10 00:24 42.63697 4.95273 35050 ft 484 kts 170°
2026-04-10 00:25 42.57140 4.97248 35053 ft 485 kts 170°
2026-04-10 00:25 42.50537 4.99284 35043 ft 486 kts 169°
2026-04-10 00:26 42.43929 5.01361 35056 ft 488 kts 171°
2026-04-10 00:26 42.37333 5.03441 35045 ft 489 kts 171°
2026-04-10 00:27 42.30702 5.05529 35051 ft 489 kts 171°
2026-04-10 00:27 42.24068 5.07612 35051 ft 491 kts 172°
2026-04-10 00:28 42.17388 5.09701 35051 ft 493 kts 172°
2026-04-10 00:28 42.10730 5.11781 35055 ft 492 kts 172°
2026-04-10 00:29 42.04043 5.13865 35053 ft 493 kts 173°
2026-04-10 00:29 41.97335 5.15950 35061 ft 494 kts 173°
2026-04-10 00:30 41.90675 5.18017 35067 ft 494 kts 173°
2026-04-10 00:30 41.83963 5.20096 35073 ft 494 kts 174°
2026-04-10 00:31 41.77266 5.22166 35061 ft 493 kts 174°
2026-04-10 00:31 41.70572 5.24230 35066 ft 493 kts 174°
2026-04-10 00:32 41.63924 5.26308 35067 ft 494 kts 172°
2026-04-10 00:32 41.57293 5.28860 35073 ft 496 kts 169°
2026-04-10 00:33 41.50735 5.31597 35073 ft 496 kts 169°
2026-04-10 00:33 41.44136 5.34324 35089 ft 496 kts 169°
2026-04-10 00:34 41.37518 5.37006 35079 ft 496 kts 170°
2026-04-10 00:34 41.30934 5.39651 35078 ft 496 kts 170°
2026-04-10 00:35 41.24316 5.42302 35086 ft 496 kts 170°
2026-04-10 00:35 41.17713 5.44942 35090 ft 495 kts 169°
2026-04-10 00:36 41.11110 5.47579 35093 ft 494 kts 169°
2026-04-10 00:36 41.04510 5.50208 35091 ft 494 kts 169°
2026-04-10 00:37 40.97955 5.52814 35090 ft 494 kts 169°
2026-04-10 00:37 40.91346 5.55436 35100 ft 494 kts 169°
2026-04-10 00:38 40.84787 5.58033 35102 ft 494 kts 169°
2026-04-10 00:38 40.78188 5.60640 35101 ft 494 kts 169°
2026-04-10 00:39 40.71593 5.63242 35107 ft 493 kts 169°
2026-04-10 00:39 40.65051 5.65817 35104 ft 493 kts 169°
2026-04-10 00:40 40.58479 5.68397 35103 ft 493 kts 169°
2026-04-10 00:40 40.51897 5.70976 35106 ft 493 kts 169°
2026-04-10 00:41 40.45344 5.73537 35105 ft 494 kts 169°
2026-04-10 00:41 40.38731 5.76117 35104 ft 495 kts 169°
2026-04-10 00:42 40.32119 5.78694 35104 ft 495 kts 169°
2026-04-10 00:42 40.25562 5.81244 35113 ft 494 kts 169°
2026-04-10 00:43 40.18973 5.83800 35116 ft 493 kts 169°
2026-04-10 00:43 40.12351 5.86050 35122 ft 488 kts 176°
2026-04-10 00:44 40.05665 5.87558 35115 ft 485 kts 177°
2026-04-10 00:44 39.99000 5.88915 35116 ft 484 kts 178°
2026-04-10 00:45 39.92374 5.90242 35119 ft 484 kts 177°
2026-04-10 00:45 39.85702 5.91590 35117 ft 484 kts 177°
2026-04-10 00:46 39.79035 5.92945 35119 ft 484 kts 177°
2026-04-10 00:46 39.72408 5.94292 35119 ft 484 kts 177°
2026-04-10 00:47 39.65747 5.95643 35119 ft 484 kts 177°
2026-04-10 00:47 39.59097 5.96989 35121 ft 483 kts 177°
2026-04-10 00:48 39.52457 5.98330 35125 ft 482 kts 177°
2026-04-10 00:48 39.45842 5.99662 35123 ft 482 kts 177°
2026-04-10 00:49 39.39193 6.01000 35125 ft 482 kts 177°
2026-04-10 00:49 39.32591 6.02325 35124 ft 482 kts 177°
2026-04-10 00:50 39.25946 6.03657 35121 ft 482 kts 177°
2026-04-10 00:50 39.19316 6.04983 35104 ft 482 kts 176°
2026-04-10 00:51 39.12731 6.06297 35127 ft 481 kts 176°
2026-04-10 00:51 39.06108 6.07617 35127 ft 481 kts 176°
2026-04-10 00:52 38.99497 6.08932 35131 ft 481 kts 177°
2026-04-10 00:52 38.92900 6.10243 35123 ft 482 kts 176°
2026-04-10 00:53 38.86260 6.11564 35127 ft 482 kts 176°
2026-04-10 00:53 38.79620 6.12883 35126 ft 482 kts 176°
2026-04-10 00:54 38.72972 6.14200 35108 ft 482 kts 176°
2026-04-10 00:54 38.66388 6.15502 35131 ft 481 kts 176°
2026-04-10 00:55 38.60877 6.16590 35127 ft 481 kts 176°
2026-04-10 00:55 38.54263 6.17893 35129 ft 481 kts 176°
2026-04-10 00:56 38.46575 6.19404 35124 ft 480 kts 176°
2026-04-10 00:56 38.41080 6.20483 35127 ft 480 kts 176°
2026-04-10 00:57 38.34470 6.21778 35129 ft 479 kts 176°
2026-04-10 00:57 38.27864 6.23069 35127 ft 479 kts 176°
2026-04-10 00:58 38.21265 6.24357 35124 ft 479 kts 176°
2026-04-10 00:58 38.14700 6.25636 35124 ft 479 kts 176°
2026-04-10 00:59 38.08096 6.26921 35124 ft 479 kts 176°
2026-04-10 00:59 38.01493 6.28203 35113 ft 479 kts 176°
2026-04-10 01:00 37.94939 6.29473 35127 ft 479 kts 176°
2026-04-10 01:00 37.88350 6.30748 35124 ft 479 kts 176°
2026-04-10 01:01 37.81760 6.32020 35119 ft 479 kts 176°
2026-04-10 01:01 37.75163 6.33291 35118 ft 478 kts 176°
2026-04-10 01:02 37.68631 6.34548 35117 ft 478 kts 176°
2026-04-10 01:02 37.62050 6.35812 35115 ft 478 kts 176°
2026-04-10 01:03 37.55462 6.37074 35115 ft 478 kts 176°
2026-04-10 01:03 37.48917 6.38327 35116 ft 478 kts 176°
2026-04-10 01:04 37.42337 6.39583 35116 ft 478 kts 176°
2026-04-10 01:04 37.35761 6.40837 35115 ft 478 kts 176°
2026-04-10 01:05 37.29176 6.42090 35106 ft 478 kts 176°
2026-04-10 01:05 37.22594 6.43341 35123 ft 477 kts 176°
2026-04-10 01:06 37.16057 6.44581 35106 ft 477 kts 176°
2026-04-10 01:06 37.09481 6.45826 35107 ft 477 kts 176°
2026-04-10 01:07 37.02905 6.47070 35130 ft 477 kts 176°
2026-04-10 01:07 36.96325 6.48312 35130 ft 478 kts 176°
2026-04-10 01:08 36.89770 6.49545 35122 ft 479 kts 176°
2026-04-10 01:08 36.83179 6.50783 35132 ft 478 kts 176°
2026-04-10 01:09 36.76589 6.52020 35136 ft 478 kts 176°
2026-04-10 01:09 36.70007 6.53254 35147 ft 478 kts 176°
2026-04-10 01:10 36.63455 6.54481 35155 ft 478 kts 176°
2026-04-10 01:10 36.56864 6.55711 35152 ft 478 kts 176°
2026-04-10 01:11 36.50324 6.56930 35190 ft 477 kts 176°
2026-04-10 01:11 36.43736 6.58156 35209 ft 477 kts 176°
2026-04-10 01:12 36.37197 6.59371 35211 ft 477 kts 176°
2026-04-10 01:12 36.30630 6.60589 35200 ft 477 kts 176°
2026-04-10 01:13 36.24064 6.62062 35212 ft 480 kts 173°
2026-04-10 01:13 36.17513 6.63780 35210 ft 481 kts 173°
2026-04-10 01:14 36.10948 6.65512 35209 ft 481 kts 173°
2026-04-10 01:14 36.04432 6.67193 35204 ft 481 kts 173°
2026-04-10 01:15 35.97854 6.68869 35210 ft 481 kts 173°
2026-04-10 01:15 35.91290 6.70533 35207 ft 481 kts 173°
2026-04-10 01:16 35.84766 6.72187 35210 ft 481 kts 173°
2026-04-10 01:17 35.74902 6.74683 35211 ft 481 kts 173°
2026-04-10 01:17 35.68326 6.76344 35210 ft 481 kts 173°
2026-04-10 01:18 35.61796 6.77991 35216 ft 481 kts 173°
2026-04-10 01:18 35.55230 6.79644 35205 ft 481 kts 173°
2026-04-10 01:19 35.48651 6.81297 35220 ft 482 kts 173°
2026-04-10 01:19 35.42064 6.82949 35224 ft 482 kts 173°
2026-04-10 01:20 35.35525 6.84587 35226 ft 482 kts 173°
2026-04-10 01:20 35.28937 6.86234 35217 ft 483 kts 173°
2026-04-10 01:21 35.22340 6.87879 35225 ft 484 kts 173°
2026-04-10 01:21 35.15730 6.89527 35226 ft 484 kts 173°
2026-04-10 01:22 35.09175 6.91160 35222 ft 484 kts 173°
2026-04-10 01:22 35.02564 6.92802 35196 ft 484 kts 173°
2026-04-10 01:23 34.95973 6.94437 35202 ft 485 kts 173°
2026-04-10 01:23 34.89339 6.96080 35183 ft 485 kts 173°
2026-04-10 01:24 34.82718 6.97715 35160 ft 485 kts 173°
2026-04-10 01:24 34.76136 6.99355 35163 ft 485 kts 173°
2026-04-10 01:25 34.69518 7.01032 35146 ft 486 kts 173°
2026-04-10 01:25 34.62889 7.02714 35135 ft 486 kts 173°
2026-04-10 01:26 34.56255 7.04391 35134 ft 486 kts 173°
2026-04-10 01:26 34.49629 7.06061 35122 ft 486 kts 173°
2026-04-10 01:27 34.43047 7.07716 35120 ft 485 kts 173°
2026-04-10 01:27 34.36423 7.09379 35115 ft 486 kts 173°
2026-04-10 01:28 34.29798 7.11040 35115 ft 486 kts 173°
2026-04-10 01:28 34.23174 7.12698 35113 ft 485 kts 173°
2026-04-10 01:29 34.16598 7.14342 35112 ft 485 kts 173°
2026-04-10 01:29 34.09979 7.15993 35111 ft 485 kts 173°
2026-04-10 01:30 34.03357 7.17642 35113 ft 485 kts 173°
2026-04-10 01:30 33.96773 7.19279 35109 ft 485 kts 173°
2026-04-10 01:31 33.90149 7.20924 35111 ft 485 kts 173°
2026-04-10 01:31 33.83537 7.22564 35110 ft 485 kts 173°
2026-04-10 01:32 33.76952 7.24194 35111 ft 485 kts 173°
2026-04-10 01:32 33.70339 7.25828 35109 ft 484 kts 173°
2026-04-10 01:33 33.63743 7.27456 35111 ft 483 kts 173°
2026-04-10 01:33 33.57142 7.29082 35109 ft 483 kts 173°
2026-04-10 01:34 33.50583 7.30696 35111 ft 483 kts 173°
2026-04-10 01:34 33.43987 7.32316 35108 ft 483 kts 173°
2026-04-10 01:35 33.37391 7.33934 35110 ft 482 kts 173°
2026-04-10 01:35 33.30837 7.35538 35109 ft 482 kts 173°
2026-04-10 01:36 33.24255 7.37147 35108 ft 482 kts 173°
2026-04-10 01:36 33.17665 7.38756 35108 ft 482 kts 173°
2026-04-10 01:37 33.11119 7.40351 35109 ft 482 kts 173°
2026-04-10 01:37 33.04531 7.41954 35108 ft 482 kts 173°
2026-04-10 01:38 32.97949 7.43553 35104 ft 482 kts 173°
2026-04-10 01:38 32.91398 7.45143 35101 ft 482 kts 174°
2026-04-10 01:39 32.84817 7.46737 35107 ft 482 kts 174°
2026-04-10 01:39 32.78246 7.48327 35110 ft 482 kts 174°
2026-04-10 01:40 32.71704 7.49906 35105 ft 482 kts 174°
2026-04-10 01:40 32.65120 7.51494 35093 ft 482 kts 174°
2026-04-10 01:41 32.59650 7.52811 35103 ft 482 kts 174°
2026-04-10 01:41 32.51998 7.54651 35107 ft 482 kts 174°
2026-04-10 01:42 32.46540 7.55962 35104 ft 482 kts 174°
2026-04-10 01:42 32.39961 7.57539 35103 ft 482 kts 174°
2026-04-10 01:43 32.33382 7.59114 35103 ft 482 kts 174°
2026-04-10 01:43 32.26825 7.60681 35100 ft 483 kts 174°
2026-04-10 01:44 32.20218 7.62258 35110 ft 484 kts 174°
2026-04-10 01:44 32.13612 7.63833 35109 ft 484 kts 174°
2026-04-10 01:45 32.07047 7.65396 35102 ft 483 kts 174°
2026-04-10 01:45 32.00448 7.66965 35102 ft 483 kts 174°
2026-04-10 01:46 31.93855 7.68529 35104 ft 483 kts 174°
2026-04-10 01:46 31.87261 7.70092 35101 ft 483 kts 174°
2026-04-10 01:47 31.80712 7.71642 35096 ft 483 kts 174°
2026-04-10 01:47 31.74111 7.73207 35098 ft 483 kts 174°
2026-04-10 01:48 31.67518 7.74798 35105 ft 483 kts 174°
2026-04-10 01:48 31.60961 7.76389 35102 ft 483 kts 174°
2026-04-10 01:49 31.54368 7.77983 35092 ft 483 kts 174°
2026-04-10 01:49 31.47771 7.79572 35102 ft 484 kts 174°
2026-04-10 01:50 31.41202 7.81152 35101 ft 484 kts 174°
2026-04-10 01:50 31.34592 7.82740 35100 ft 484 kts 174°
2026-04-10 01:51 31.27990 7.84324 35078 ft 484 kts 175°
2026-04-10 01:51 31.21381 7.85906 35097 ft 484 kts 175°
2026-04-10 01:52 31.14806 7.87479 35098 ft 484 kts 175°
2026-04-10 01:52 31.08198 7.89057 35100 ft 484 kts 175°
2026-04-10 01:53 31.01587 7.90634 35098 ft 484 kts 175°
2026-04-10 01:53 30.95015 7.92199 35096 ft 485 kts 175°
2026-04-10 01:54 30.88379 7.93777 35098 ft 485 kts 175°
2026-04-10 01:54 30.81751 7.95352 35099 ft 485 kts 175°
2026-04-10 01:55 30.75158 7.96915 35099 ft 485 kts 175°
2026-04-10 01:55 30.68524 7.98485 35091 ft 487 kts 175°
2026-04-10 01:56 30.61913 8.00048 35096 ft 487 kts 175°
2026-04-10 01:56 30.55251 8.01623 35096 ft 487 kts 175°
2026-04-10 01:57 30.48589 8.03196 35094 ft 487 kts 175°
2026-04-10 01:57 30.41970 8.04755 35096 ft 487 kts 175°
2026-04-10 01:58 30.35312 8.06320 35103 ft 487 kts 175°
2026-04-10 01:58 30.28701 8.07873 35113 ft 487 kts 175°
2026-04-10 01:59 30.22047 8.09434 35097 ft 488 kts 175°
2026-04-10 01:59 30.15391 8.10993 35110 ft 488 kts 175°
2026-04-10 02:00 30.08727 8.12554 35103 ft 487 kts 176°
2026-04-10 02:00 30.02074 8.14116 35108 ft 488 kts 175°
2026-04-10 02:01 29.95418 8.15699 35100 ft 488 kts 175°
2026-04-10 02:01 29.88796 8.17275 35106 ft 488 kts 175°
2026-04-10 02:02 29.82140 8.18856 35101 ft 487 kts 176°
2026-04-10 02:02 29.75523 8.20423 35108 ft 487 kts 176°
2026-04-10 02:03 29.68858 8.21998 35110 ft 488 kts 176°
2026-04-10 02:03 29.62203 8.23568 35110 ft 487 kts 176°
2026-04-10 02:04 29.55593 8.25128 35100 ft 487 kts 176°
2026-04-10 02:04 29.48937 8.26695 35111 ft 487 kts 176°
2026-04-10 02:05 29.42286 8.28258 35111 ft 487 kts 176°
2026-04-10 02:05 29.35677 8.29810 35110 ft 487 kts 176°
2026-04-10 02:06 29.29018 8.31371 35115 ft 487 kts 176°
2026-04-10 02:06 29.22379 8.32927 35112 ft 486 kts 176°
2026-04-10 02:07 29.15749 8.34478 35122 ft 486 kts 176°
2026-04-10 02:07 29.09131 8.36022 35114 ft 488 kts 176°
2026-04-10 02:08 29.02457 8.37578 35117 ft 489 kts 176°
2026-04-10 02:08 28.95794 8.39131 35115 ft 489 kts 176°
2026-04-10 02:09 28.89159 8.40675 35118 ft 489 kts 176°
2026-04-10 02:09 28.82478 8.42227 35121 ft 489 kts 176°
2026-04-10 02:10 28.75800 8.43777 35119 ft 489 kts 176°
2026-04-10 02:10 28.69165 8.45315 35102 ft 489 kts 177°
2026-04-10 02:11 28.62486 8.46860 35121 ft 490 kts 177°
2026-04-10 02:11 28.55793 8.48406 35123 ft 490 kts 177°
2026-04-10 02:12 28.49142 8.49943 35126 ft 490 kts 177°
2026-04-10 02:12 28.42450 8.51486 35124 ft 490 kts 177°
2026-04-10 02:13 28.35754 8.53028 35117 ft 490 kts 178°
2026-04-10 02:13 28.29052 8.54567 35121 ft 491 kts 178°
2026-04-10 02:14 28.22380 8.56099 35120 ft 491 kts 178°
2026-04-10 02:14 28.15667 8.57640 35118 ft 491 kts 178°
2026-04-10 02:15 28.08964 8.59177 35100 ft 491 kts 178°
2026-04-10 02:15 28.02301 8.60716 35112 ft 492 kts 178°
2026-04-10 02:16 27.95585 8.62274 35124 ft 492 kts 178°
2026-04-10 02:16 27.88879 8.63827 35114 ft 492 kts 178°
2026-04-10 02:17 27.78831 8.66148 35098 ft 492 kts 178°
2026-04-10 02:17 27.72120 8.67694 35109 ft 492 kts 178°
2026-04-10 02:18 27.65401 8.69241 35112 ft 492 kts 178°
2026-04-10 02:18 27.58675 8.70788 35111 ft 492 kts 178°
2026-04-10 02:19 27.51963 8.72328 35109 ft 493 kts 178°
2026-04-10 02:19 27.45254 8.73865 35108 ft 494 kts 178°
2026-04-10 02:20 27.38508 8.75411 35110 ft 494 kts 178°
2026-04-10 02:20 27.31802 8.76946 35109 ft 495 kts 178°
2026-04-10 02:21 27.25043 8.78491 35109 ft 494 kts 178°
2026-04-10 02:21 27.18286 8.80033 35098 ft 495 kts 178°
2026-04-10 02:22 27.11578 8.81562 35113 ft 495 kts 179°
2026-04-10 02:22 27.04827 8.83099 35111 ft 495 kts 179°
2026-04-10 02:23 26.98067 8.84638 35116 ft 495 kts 178°
2026-04-10 02:23 26.91309 8.86185 35120 ft 495 kts 178°
2026-04-10 02:24 26.84553 8.87734 35126 ft 496 kts 179°
2026-04-10 02:24 26.77818 8.89275 35127 ft 496 kts 179°
2026-04-10 02:25 26.71044 8.90823 35108 ft 496 kts 179°
2026-04-10 02:25 26.64270 8.92368 35108 ft 496 kts 179°
2026-04-10 02:26 26.57543 8.93902 35101 ft 496 kts 179°
2026-04-10 02:26 26.50763 8.95444 35114 ft 497 kts 179°
2026-04-10 02:27 26.43968 8.96989 35126 ft 497 kts 179°
2026-04-10 02:27 26.37185 8.98531 35119 ft 497 kts 179°
2026-04-10 02:28 26.30438 9.00061 35135 ft 497 kts 179°
2026-04-10 02:28 26.24797 9.01338 35128 ft 497 kts 179°
2026-04-10 02:29 26.18004 9.02875 35137 ft 498 kts 179°
2026-04-10 02:29 26.11198 9.04413 35139 ft 498 kts 179°
2026-04-10 02:30 26.04399 9.05948 35145 ft 498 kts 179°
2026-04-10 02:30 25.97592 9.07486 35148 ft 498 kts 179°
2026-04-10 02:31 25.90841 9.09020 35154 ft 498 kts 180°
2026-04-10 02:31 25.84028 9.10568 35158 ft 500 kts 180°
2026-04-10 02:32 25.77196 9.12118 35156 ft 500 kts 180°
2026-04-10 02:32 25.70418 9.13653 35163 ft 500 kts 180°
2026-04-10 02:33 25.63586 9.15198 35153 ft 500 kts 180°
2026-04-10 02:33 25.56752 9.16742 35164 ft 500 kts 180°
2026-04-10 02:34 25.49965 9.18274 35164 ft 500 kts 180°
2026-04-10 02:34 25.43135 9.19813 35165 ft 500 kts 180°
2026-04-10 02:35 25.36299 9.21352 35166 ft 500 kts 180°
2026-04-10 02:35 25.29515 9.22878 35170 ft 499 kts 180°
2026-04-10 02:36 25.22703 9.24408 35172 ft 499 kts 180°
2026-04-10 02:36 25.15884 9.25938 35170 ft 499 kts 180°
2026-04-10 02:37 25.09062 9.27467 35167 ft 499 kts 180°
2026-04-10 02:37 25.02295 9.28982 35145 ft 499 kts 180°
2026-04-10 02:38 24.95497 9.30503 35166 ft 497 kts 180°
2026-04-10 02:38 24.88707 9.32020 35172 ft 497 kts 180°
2026-04-10 02:39 24.81914 9.33534 35165 ft 497 kts 180°
2026-04-10 02:39 24.75125 9.35046 35162 ft 497 kts 180°
2026-04-10 02:40 24.68374 9.36551 35152 ft 497 kts 179°
2026-04-10 02:40 24.61571 9.38064 35158 ft 497 kts 180°
2026-04-10 02:41 24.54805 9.39565 35177 ft 497 kts 180°
2026-04-10 02:41 24.48007 9.41072 35193 ft 498 kts 179°
2026-04-10 02:42 24.41213 9.42578 35205 ft 497 kts 180°
2026-04-10 02:42 24.34460 9.44074 35211 ft 497 kts 180°
2026-04-10 02:43 24.27722 9.46245 35210 ft 519 kts 165°
2026-04-10 02:43 24.21275 9.50000 35211 ft 528 kts 159°
2026-04-10 02:44 24.14913 9.54103 35196 ft 531 kts 158°
2026-04-10 02:44 24.08567 9.58243 35181 ft 530 kts 158°
2026-04-10 02:45 24.02255 9.62313 35162 ft 530 kts 159°
2026-04-10 02:45 23.95885 9.66386 35154 ft 530 kts 159°
2026-04-10 02:46 23.89496 9.70458 35151 ft 530 kts 159°
2026-04-10 02:46 23.83116 9.74521 35151 ft 530 kts 159°
2026-04-10 02:47 23.76779 9.78553 35146 ft 530 kts 159°
2026-04-10 02:47 23.70399 9.82609 35147 ft 530 kts 159°
2026-04-10 02:48 23.64019 9.86659 35148 ft 531 kts 158°
2026-04-10 02:48 23.57661 9.90691 35147 ft 531 kts 158°
2026-04-10 02:49 23.51245 9.94757 35142 ft 531 kts 158°
2026-04-10 02:49 23.44884 9.98782 35142 ft 531 kts 158°
2026-04-10 02:50 23.38478 10.02831 35135 ft 531 kts 158°
2026-04-10 02:50 23.32121 10.06844 35138 ft 531 kts 158°
2026-04-10 02:51 23.25719 10.10882 35136 ft 531 kts 158°
2026-04-10 02:51 23.19305 10.14923 35136 ft 531 kts 158°
2026-04-10 02:52 23.12938 10.18929 35132 ft 531 kts 158°
2026-04-10 02:52 23.06533 10.22954 35129 ft 532 kts 158°
2026-04-10 02:53 23.00106 10.26989 35133 ft 533 kts 158°
2026-04-10 02:53 22.93704 10.31004 35131 ft 533 kts 158°
2026-04-10 02:54 22.87272 10.35035 35128 ft 533 kts 158°
2026-04-10 02:54 22.80838 10.39061 35129 ft 533 kts 158°
2026-04-10 02:55 22.74432 10.43066 35111 ft 533 kts 158°
2026-04-10 02:55 22.67996 10.47085 35118 ft 533 kts 158°
2026-04-10 02:56 22.61575 10.51128 35115 ft 534 kts 157°
2026-04-10 02:56 22.55276 10.55325 35117 ft 535 kts 156°
2026-04-10 02:57 22.48961 10.59600 35114 ft 535 kts 156°
2026-04-10 02:57 22.42630 10.63866 35079 ft 535 kts 155°
2026-04-10 02:58 22.36294 10.68111 35114 ft 532 kts 156°
2026-04-10 02:58 22.30041 10.72288 35112 ft 531 kts 156°
2026-04-10 02:59 22.23748 10.76484 35111 ft 531 kts 156°
2026-04-10 03:00 22.14301 10.82777 35106 ft 531 kts 156°
2026-04-10 03:00 22.08004 10.86968 35086 ft 531 kts 155°
2026-04-10 03:01 22.01713 10.91152 35102 ft 530 kts 155°
2026-04-10 03:01 21.95478 10.95293 35096 ft 529 kts 155°
2026-04-10 03:02 21.89208 10.99452 35097 ft 529 kts 155°
2026-04-10 03:02 21.82914 11.03622 35097 ft 529 kts 155°
2026-04-10 03:03 21.76668 11.07756 35094 ft 529 kts 155°
2026-04-10 03:03 21.70391 11.11909 35094 ft 528 kts 155°
2026-04-10 03:04 21.64129 11.16046 35088 ft 527 kts 155°
2026-04-10 03:04 21.57866 11.20179 35088 ft 527 kts 155°
2026-04-10 03:05 21.51637 11.24285 35086 ft 527 kts 155°
2026-04-10 03:05 21.45362 11.28418 35086 ft 527 kts 155°
2026-04-10 03:06 21.39101 11.32537 35073 ft 528 kts 155°
2026-04-10 03:06 21.32878 11.36628 35083 ft 527 kts 155°
2026-04-10 03:07 21.26618 11.40738 35084 ft 527 kts 155°
2026-04-10 03:07 21.20350 11.44849 35083 ft 527 kts 155°
2026-04-10 03:08 21.14120 11.48932 35079 ft 527 kts 155°
2026-04-10 03:08 21.04717 11.55087 35080 ft 527 kts 155°
2026-04-10 03:09 20.98458 11.59179 35075 ft 527 kts 155°
2026-04-10 03:09 20.92233 11.63246 35075 ft 527 kts 155°
2026-04-10 03:10 20.85966 11.67335 35073 ft 527 kts 155°
2026-04-10 03:10 20.79687 11.71428 35072 ft 527 kts 155°
2026-04-10 03:11 20.73450 11.75490 35061 ft 528 kts 155°
2026-04-10 03:11 20.67181 11.79569 35069 ft 526 kts 155°
2026-04-10 03:12 20.60934 11.83631 35070 ft 525 kts 155°
2026-04-10 03:12 20.54686 11.87687 35068 ft 525 kts 155°
2026-04-10 03:13 20.48435 11.91740 35069 ft 525 kts 155°
2026-04-10 03:13 20.42211 11.95770 35061 ft 525 kts 155°
2026-04-10 03:14 20.35949 11.99822 35062 ft 525 kts 155°
2026-04-10 03:14 20.30754 12.03182 35062 ft 525 kts 155°
2026-04-10 03:15 20.24495 12.07225 35065 ft 526 kts 155°
2026-04-10 03:15 20.18276 12.11238 35057 ft 526 kts 155°
2026-04-10 03:16 20.12012 12.15277 35062 ft 526 kts 155°
2026-04-10 03:16 20.05747 12.19313 35059 ft 526 kts 155°
2026-04-10 03:17 19.99474 12.23349 35056 ft 526 kts 155°
2026-04-10 03:17 19.93202 12.27382 35056 ft 526 kts 155°
2026-04-10 03:18 19.86927 12.31413 35056 ft 526 kts 155°
2026-04-10 03:18 19.80688 12.35417 35056 ft 526 kts 155°
2026-04-10 03:19 19.74423 12.39434 35054 ft 526 kts 155°
2026-04-10 03:19 19.68145 12.43455 35047 ft 526 kts 155°
2026-04-10 03:20 19.61877 12.47467 35050 ft 525 kts 155°
2026-04-10 03:20 19.55615 12.51470 35048 ft 525 kts 155°
2026-04-10 03:21 19.49391 12.55446 35048 ft 525 kts 155°
2026-04-10 03:21 19.43138 12.59436 35045 ft 525 kts 155°
2026-04-10 03:22 19.36861 12.63438 35048 ft 524 kts 155°
2026-04-10 03:22 19.30663 12.67389 35054 ft 519 kts 155°
2026-04-10 03:23 19.24499 12.71316 35042 ft 515 kts 155°
2026-04-10 03:23 19.18351 12.75223 35047 ft 515 kts 155°
2026-04-10 03:24 19.12204 12.79126 35034 ft 515 kts 155°
2026-04-10 03:24 19.06086 12.83008 35033 ft 515 kts 155°
2026-04-10 03:25 18.99948 12.86931 35033 ft 518 kts 152°
2026-04-10 03:25 18.94328 12.91799 35044 ft 523 kts 143°
2026-04-10 03:26 18.89001 12.97006 35041 ft 524 kts 141°
2026-04-10 03:26 18.83698 13.02306 35036 ft 525 kts 141°
2026-04-10 03:27 18.78377 13.07604 35036 ft 524 kts 142°
2026-04-10 03:27 18.73046 13.12880 35020 ft 524 kts 142°
2026-04-10 03:28 18.67739 13.18115 35037 ft 526 kts 142°
2026-04-10 03:28 18.62386 13.23391 35025 ft 526 kts 141°
2026-04-10 03:29 18.57047 13.28651 35028 ft 524 kts 141°
2026-04-10 03:29 18.51720 13.33894 35030 ft 523 kts 141°
2026-04-10 03:30 18.46428 13.39097 35028 ft 524 kts 141°
2026-04-10 03:30 18.41090 13.44341 35028 ft 524 kts 141°
2026-04-10 03:31 18.35764 13.49570 35024 ft 523 kts 141°
2026-04-10 03:31 18.30420 13.54809 35018 ft 524 kts 141°
2026-04-10 03:32 18.25124 13.60000 35020 ft 521 kts 141°
2026-04-10 03:32 18.19830 13.65186 35018 ft 518 kts 141°
2026-04-10 03:33 18.14548 13.70351 35021 ft 518 kts 141°
2026-04-10 03:33 18.09292 13.75487 35016 ft 518 kts 141°
2026-04-10 03:34 18.04007 13.80646 35011 ft 518 kts 141°
2026-04-10 03:34 17.98717 13.85806 35015 ft 518 kts 141°
2026-04-10 03:35 17.93423 13.90967 35012 ft 519 kts 141°
2026-04-10 03:35 17.88162 13.96091 35003 ft 517 kts 141°
2026-04-10 03:36 17.82891 14.01222 35005 ft 515 kts 141°
2026-04-10 03:36 17.77658 14.06310 35000 ft 515 kts 141°
2026-04-10 03:37 17.72377 14.11439 35006 ft 515 kts 141°
2026-04-10 03:37 17.67107 14.16554 35004 ft 515 kts 141°
2026-04-10 03:38 17.61873 14.21629 34998 ft 515 kts 141°
2026-04-10 03:38 17.56591 14.26747 34999 ft 516 kts 141°
2026-04-10 03:39 17.51339 14.31832 34999 ft 516 kts 141°
2026-04-10 03:39 17.46060 14.36940 34996 ft 516 kts 141°
2026-04-10 03:40 17.40777 14.42046 34998 ft 516 kts 141°
2026-04-10 03:40 17.35490 14.47152 34995 ft 516 kts 141°
2026-04-10 03:41 17.30239 14.52220 34991 ft 516 kts 141°
2026-04-10 03:41 17.24944 14.57325 34990 ft 516 kts 141°
2026-04-10 03:42 17.19655 14.62420 34977 ft 516 kts 141°
2026-04-10 03:42 17.14392 14.67487 34985 ft 512 kts 141°
2026-04-10 03:43 17.09187 14.72493 34988 ft 511 kts 141°
2026-04-10 03:43 17.03945 14.77530 34982 ft 511 kts 141°
2026-04-10 03:44 16.98702 14.82564 34983 ft 511 kts 141°
2026-04-10 03:44 16.93482 14.87572 34981 ft 511 kts 141°
2026-04-10 03:45 16.88238 14.92599 34979 ft 511 kts 141°
2026-04-10 03:45 16.82994 14.97623 34966 ft 511 kts 140°
2026-04-10 03:46 16.77751 15.02642 34972 ft 509 kts 140°
2026-04-10 03:46 16.72562 15.07605 34971 ft 509 kts 140°
2026-04-10 03:47 16.67336 15.12599 34970 ft 509 kts 140°
2026-04-10 03:47 16.62114 15.17586 34969 ft 508 kts 141°
2026-04-10 03:48 16.56896 15.22566 34967 ft 508 kts 141°
2026-04-10 03:48 16.51667 15.27552 34967 ft 508 kts 141°
2026-04-10 03:49 16.46475 15.32499 34956 ft 509 kts 140°
2026-04-10 03:49 16.41236 15.37487 34963 ft 509 kts 140°
2026-04-10 03:50 16.36002 15.42466 34965 ft 509 kts 140°
2026-04-10 03:50 16.30767 15.47443 34960 ft 509 kts 140°
2026-04-10 03:51 16.25565 15.52384 34959 ft 509 kts 140°
2026-04-10 03:51 16.20326 15.57356 34964 ft 509 kts 140°
2026-04-10 03:52 16.15084 15.62328 34955 ft 509 kts 140°
2026-04-10 03:52 16.09873 15.67268 34947 ft 509 kts 140°
2026-04-10 03:53 16.04615 15.72247 34947 ft 510 kts 140°
2026-04-10 03:53 15.99356 15.77224 34943 ft 510 kts 141°
2026-04-10 03:54 15.94127 15.82169 34944 ft 510 kts 140°
2026-04-10 03:54 15.88872 15.87135 34959 ft 510 kts 141°
2026-04-10 03:55 15.83621 15.92093 34944 ft 510 kts 141°
2026-04-10 03:55 15.78395 15.97024 34944 ft 510 kts 141°
2026-04-10 03:56 15.73138 16.01981 34948 ft 511 kts 141°
2026-04-10 03:56 15.67882 16.06932 34946 ft 514 kts 141°
2026-04-10 03:57 15.62580 16.11925 34947 ft 514 kts 141°
2026-04-10 03:57 15.57271 16.16919 34927 ft 514 kts 141°
2026-04-10 03:58 15.51971 16.21903 34923 ft 514 kts 141°
2026-04-10 03:58 15.46666 16.26887 34939 ft 514 kts 141°
2026-04-10 03:59 15.41403 16.31828 34940 ft 514 kts 141°
2026-04-10 03:59 15.36096 16.36806 34931 ft 513 kts 141°
2026-04-10 04:00 15.30813 16.41760 34935 ft 510 kts 141°
2026-04-10 04:00 15.26443 16.45854 34937 ft 509 kts 141°
2026-04-10 04:01 15.20325 16.51581 34932 ft 509 kts 141°
2026-04-10 04:01 15.15061 16.56505 34931 ft 509 kts 141°
2026-04-10 04:02 15.10688 16.60593 34934 ft 509 kts 141°
2026-04-10 04:02 15.05424 16.65511 34931 ft 509 kts 141°
2026-04-10 04:03 15.00186 16.70401 34921 ft 509 kts 141°
2026-04-10 04:03 14.94947 16.75290 34924 ft 505 kts 141°
2026-04-10 04:04 14.89729 16.80155 34928 ft 504 kts 141°
2026-04-10 04:04 14.84507 16.85020 34922 ft 505 kts 141°
2026-04-10 04:05 14.79313 16.89856 34922 ft 505 kts 141°
2026-04-10 04:05 14.74094 16.94711 34919 ft 505 kts 141°
2026-04-10 04:06 14.68865 16.99573 34914 ft 505 kts 141°
2026-04-10 04:06 14.63681 17.04390 34915 ft 504 kts 141°
2026-04-10 04:07 14.58471 17.09228 34916 ft 502 kts 141°
2026-04-10 04:07 14.53272 17.14052 34911 ft 501 kts 141°
2026-04-10 04:08 14.48074 17.18871 34911 ft 501 kts 141°
2026-04-10 04:08 14.42911 17.23654 34912 ft 501 kts 141°
2026-04-10 04:09 14.37717 17.28463 34908 ft 501 kts 141°
2026-04-10 04:09 14.32527 17.33267 34906 ft 501 kts 141°
2026-04-10 04:10 14.27351 17.38053 34906 ft 501 kts 141°
2026-04-10 04:10 14.22158 17.42853 34905 ft 500 kts 140°
2026-04-10 04:11 14.16962 17.47652 34903 ft 500 kts 140°
2026-04-10 04:11 14.11799 17.52417 34903 ft 500 kts 140°
2026-04-10 04:12 14.06606 17.57208 34900 ft 500 kts 140°
2026-04-10 04:12 14.01413 17.61995 34900 ft 500 kts 140°
2026-04-10 04:13 13.96253 17.66748 34898 ft 500 kts 140°
2026-04-10 04:13 13.91052 17.71536 34898 ft 500 kts 140°
2026-04-10 04:14 13.85860 17.76313 34900 ft 501 kts 140°
2026-04-10 04:14 13.80655 17.81100 34895 ft 501 kts 140°
2026-04-10 04:15 13.75476 17.85859 34898 ft 502 kts 140°
2026-04-10 04:15 13.70252 17.90657 34897 ft 502 kts 140°
2026-04-10 04:16 13.62466 17.97801 34897 ft 502 kts 140°
2026-04-10 04:17 13.57244 18.02590 34898 ft 502 kts 140°
2026-04-10 04:17 13.52063 18.07338 34895 ft 501 kts 140°
2026-04-10 04:18 13.46860 18.12104 34897 ft 499 kts 140°
2026-04-10 04:18 13.41659 18.16864 34900 ft 499 kts 140°
2026-04-10 04:19 13.36500 18.21582 34901 ft 499 kts 140°
2026-04-10 04:19 13.31303 18.26333 34900 ft 499 kts 140°
2026-04-10 04:20 13.26117 18.31071 34900 ft 499 kts 140°
2026-04-10 04:20 13.20949 18.35790 34900 ft 499 kts 140°
2026-04-10 04:21 13.15755 18.40529 34896 ft 499 kts 140°
2026-04-10 04:21 13.10606 18.45225 34904 ft 497 kts 140°
2026-04-10 04:22 13.05417 18.49954 34896 ft 498 kts 140°
2026-04-10 04:22 13.00225 18.54684 34898 ft 498 kts 140°
2026-04-10 04:23 12.95076 18.59372 34899 ft 498 kts 140°
2026-04-10 04:23 12.89886 18.64094 34897 ft 498 kts 140°
2026-04-10 04:24 12.84694 18.68816 34895 ft 498 kts 140°
2026-04-10 04:24 12.79503 18.73533 34895 ft 498 kts 140°
2026-04-10 04:25 12.74355 18.78209 34897 ft 497 kts 140°
2026-04-10 04:25 12.69173 18.82913 34898 ft 498 kts 140°
2026-04-10 04:26 12.63975 18.87629 34892 ft 498 kts 140°
2026-04-10 04:26 12.58769 18.92350 34895 ft 498 kts 140°
2026-04-10 04:27 12.53606 18.97029 34898 ft 498 kts 140°
2026-04-10 04:27 12.48407 19.01737 34898 ft 498 kts 140°
2026-04-10 04:28 12.43200 19.06450 34899 ft 498 kts 140°
2026-04-10 04:28 12.38042 19.11117 34898 ft 497 kts 140°
2026-04-10 04:29 12.32855 19.15807 34899 ft 497 kts 140°
2026-04-10 04:29 12.27657 19.20504 34900 ft 498 kts 140°
2026-04-10 04:30 12.22464 19.25195 34903 ft 498 kts 140°
2026-04-10 04:30 12.17298 19.29858 34903 ft 498 kts 140°
2026-04-10 04:31 12.12098 19.34550 34904 ft 498 kts 140°
2026-04-10 04:31 12.06894 19.39242 34901 ft 498 kts 140°
2026-04-10 04:32 12.01735 19.43892 34900 ft 496 kts 140°
2026-04-10 04:32 11.96557 19.48555 34900 ft 496 kts 140°
2026-04-10 04:33 11.91374 19.53222 34901 ft 496 kts 140°
2026-04-10 04:33 11.86215 19.57863 34903 ft 496 kts 140°
2026-04-10 04:34 11.81026 19.62531 34902 ft 496 kts 140°
2026-04-10 04:34 11.75836 19.67195 34900 ft 496 kts 140°
2026-04-10 04:35 11.70679 19.71829 34901 ft 496 kts 140°
2026-04-10 04:35 11.65499 19.76480 34899 ft 495 kts 140°
2026-04-10 04:36 11.60315 19.81106 34901 ft 494 kts 140°
2026-04-10 04:36 11.55112 19.85709 34903 ft 494 kts 140°
2026-04-10 04:37 11.49940 19.90280 34904 ft 494 kts 140°
2026-04-10 04:37 11.44731 19.94886 34905 ft 494 kts 140°
2026-04-10 04:38 11.39560 19.99457 34907 ft 494 kts 140°
2026-04-10 04:38 11.34358 20.04055 34909 ft 494 kts 140°
2026-04-10 04:39 11.29158 20.08650 34914 ft 493 kts 140°
2026-04-10 04:39 11.23966 20.13234 34914 ft 493 kts 140°
2026-04-10 04:40 11.18779 20.17811 34918 ft 493 kts 140°
2026-04-10 04:40 11.13621 20.22361 34916 ft 493 kts 140°
2026-04-10 04:41 11.08435 20.26933 34918 ft 493 kts 140°
2026-04-10 04:41 11.03240 20.31511 34919 ft 493 kts 140°
2026-04-10 04:42 10.98084 20.36052 34919 ft 493 kts 140°
2026-04-10 04:42 10.92897 20.40619 34919 ft 492 kts 140°
2026-04-10 04:43 10.87719 20.45175 34920 ft 491 kts 140°
2026-04-10 04:43 10.82542 20.49729 34919 ft 491 kts 140°
2026-04-10 04:44 10.77369 20.54277 34922 ft 491 kts 140°
2026-04-10 04:44 10.72211 20.58809 34922 ft 492 kts 140°
2026-04-10 04:45 10.67026 20.63363 34925 ft 492 kts 140°
2026-04-10 04:45 10.61875 20.67884 34925 ft 492 kts 140°
2026-04-10 04:46 10.56686 20.72437 34924 ft 492 kts 140°
2026-04-10 04:46 10.51480 20.77003 34925 ft 493 kts 140°
2026-04-10 04:47 10.46321 20.81526 34924 ft 493 kts 140°
2026-04-10 04:47 10.41120 20.86083 34925 ft 493 kts 140°
2026-04-10 04:48 10.35915 20.90642 34930 ft 494 kts 140°
2026-04-10 04:48 10.30706 20.95202 34930 ft 494 kts 140°
2026-04-10 04:49 10.25527 20.99734 34927 ft 494 kts 140°
2026-04-10 04:49 10.20314 21.04293 34930 ft 494 kts 140°
2026-04-10 04:50 10.15984 21.08080 34930 ft 494 kts 140°
2026-04-10 04:50 10.09926 21.13374 34930 ft 494 kts 140°
2026-04-10 04:51 10.05588 21.17163 34930 ft 494 kts 140°
2026-04-10 04:51 10.00362 21.21726 34930 ft 495 kts 140°
2026-04-10 04:52 9.95165 21.26262 34930 ft 495 kts 140°
2026-04-10 04:52 9.89933 21.30826 34933 ft 495 kts 140°
2026-04-10 04:53 9.84709 21.35382 34930 ft 494 kts 140°
2026-04-10 04:53 9.79525 21.39901 34930 ft 493 kts 140°
2026-04-10 04:54 9.74320 21.44436 34935 ft 491 kts 140°
2026-04-10 04:54 9.69153 21.48936 34935 ft 487 kts 140°
2026-04-10 04:55 9.64008 21.53415 34933 ft 487 kts 140°
2026-04-10 04:55 9.58888 21.57870 34933 ft 487 kts 140°
2026-04-10 04:56 9.53738 21.62349 34935 ft 487 kts 140°
2026-04-10 04:56 9.48629 21.66879 34939 ft 487 kts 139°
2026-04-10 04:57 9.43577 21.71429 34935 ft 484 kts 139°
2026-04-10 04:57 9.38577 21.75930 34936 ft 483 kts 139°
2026-04-10 04:58 9.33539 21.80454 34932 ft 483 kts 139°
2026-04-10 04:58 9.28519 21.84954 34936 ft 484 kts 139°
2026-04-10 04:59 9.23478 21.89471 34938 ft 484 kts 139°
2026-04-10 04:59 9.18425 21.93996 34941 ft 484 kts 139°
2026-04-10 05:00 9.13378 21.98515 34942 ft 484 kts 139°
2026-04-10 05:00 9.08338 22.03026 34946 ft 482 kts 139°
2026-04-10 05:01 9.03348 22.07490 34951 ft 481 kts 139°
2026-04-10 05:01 8.98323 22.11984 34952 ft 481 kts 139°
2026-04-10 05:02 8.93294 22.16479 34952 ft 482 kts 139°
2026-04-10 05:02 8.88302 22.20940 34958 ft 482 kts 139°
2026-04-10 05:03 8.83274 22.25431 34964 ft 482 kts 139°
2026-04-10 05:03 8.78239 22.29927 34966 ft 482 kts 139°
2026-04-10 05:04 8.73236 22.34393 34973 ft 482 kts 139°
2026-04-10 05:04 8.68199 22.38887 34977 ft 482 kts 139°
2026-04-10 05:05 8.63156 22.43384 34974 ft 482 kts 139°
2026-04-10 05:05 8.58145 22.47852 34982 ft 482 kts 139°
2026-04-10 05:06 8.53107 22.52342 34988 ft 483 kts 139°
2026-04-10 05:06 8.48059 22.56840 34988 ft 483 kts 139°
2026-04-10 05:07 8.43053 22.61298 34992 ft 483 kts 139°
2026-04-10 05:07 8.38005 22.65793 34991 ft 482 kts 140°
2026-04-10 05:08 8.32965 22.70279 34989 ft 481 kts 140°
2026-04-10 05:08 8.27944 22.74745 34993 ft 481 kts 140°
2026-04-10 05:09 8.22949 22.79187 34985 ft 481 kts 140°
2026-04-10 05:09 8.15033 22.85374 34984 ft 479 kts 154°
2026-04-10 05:10 8.08902 22.88001 34983 ft 478 kts 160°
2026-04-10 05:10 8.02690 22.90303 34982 ft 478 kts 161°
2026-04-10 05:11 7.96432 22.92567 34977 ft 476 kts 161°
2026-04-10 05:11 7.90242 22.94830 34976 ft 475 kts 161°
2026-04-10 05:12 7.84017 22.97126 34977 ft 475 kts 161°
2026-04-10 05:12 7.77799 22.99426 34977 ft 475 kts 161°
2026-04-10 05:13 7.71585 23.01723 34980 ft 475 kts 161°
2026-04-10 05:13 7.65407 23.04006 34977 ft 475 kts 161°
2026-04-10 05:14 7.59196 23.06299 34977 ft 474 kts 161°
2026-04-10 05:14 7.52998 23.08587 34980 ft 474 kts 161°
2026-04-10 05:15 7.46807 23.10872 34980 ft 474 kts 160°
2026-04-10 05:15 7.40607 23.13160 34979 ft 475 kts 160°
2026-04-10 05:16 7.34431 23.15437 34979 ft 475 kts 160°
2026-04-10 05:16 7.28224 23.17726 34979 ft 473 kts 160°
2026-04-10 05:17 7.22037 23.20006 34980 ft 472 kts 160°
2026-04-10 05:17 7.15898 23.22269 34980 ft 472 kts 160°
2026-04-10 05:18 7.09714 23.24547 34979 ft 472 kts 160°
2026-04-10 05:18 7.03524 23.26826 34980 ft 472 kts 160°
2026-04-10 05:19 6.97348 23.29100 34977 ft 472 kts 160°
2026-04-10 05:19 6.91225 23.31353 34976 ft 470 kts 160°
2026-04-10 05:20 6.85087 23.33612 34977 ft 469 kts 160°
2026-04-10 05:20 6.78941 23.35873 34977 ft 470 kts 160°
2026-04-10 05:21 6.72829 23.38121 34977 ft 470 kts 160°
2026-04-10 05:21 6.66678 23.40382 34974 ft 470 kts 160°
2026-04-10 05:22 6.60534 23.42641 34974 ft 470 kts 160°
2026-04-10 05:22 6.54377 23.44903 34972 ft 471 kts 160°
2026-04-10 05:23 6.48232 23.47160 34971 ft 472 kts 160°
2026-04-10 05:23 6.42064 23.49426 34971 ft 472 kts 160°
2026-04-10 05:24 6.35881 23.51696 34969 ft 472 kts 160°
2026-04-10 05:24 6.29699 23.53965 34968 ft 472 kts 160°
2026-04-10 05:25 6.23561 23.56218 34971 ft 471 kts 160°
2026-04-10 05:25 6.17411 23.58474 34971 ft 469 kts 160°
2026-04-10 05:26 6.11274 23.60725 34971 ft 469 kts 160°
2026-04-10 05:26 6.05176 23.62962 34971 ft 469 kts 160°
2026-04-10 05:27 5.99041 23.65211 34971 ft 469 kts 160°
2026-04-10 05:27 5.92898 23.67463 34971 ft 469 kts 160°
2026-04-10 05:28 5.86787 23.69702 34972 ft 470 kts 159°
2026-04-10 05:28 5.80625 23.71959 34969 ft 471 kts 159°
2026-04-10 05:29 5.74468 23.74214 34968 ft 471 kts 159°
2026-04-10 05:29 5.68476 23.76847 34968 ft 470 kts 148°
2026-04-10 05:30 5.63557 23.81084 34970 ft 469 kts 130°
2026-04-10 05:30 5.59519 23.86244 34969 ft 470 kts 126°
2026-04-10 05:31 5.55659 23.91554 34966 ft 470 kts 126°
2026-04-10 05:31 5.51795 23.96874 34966 ft 471 kts 126°
2026-04-10 05:32 5.47925 24.02141 34963 ft 471 kts 126°
2026-04-10 05:32 5.44015 24.07430 34964 ft 471 kts 126°
2026-04-10 05:33 5.40101 24.12717 34966 ft 471 kts 126°
2026-04-10 05:33 5.36186 24.18007 34963 ft 472 kts 126°
2026-04-10 05:34 5.32296 24.23264 34963 ft 471 kts 126°
2026-04-10 05:34 5.28368 24.28571 34963 ft 471 kts 126°
2026-04-10 05:35 5.24459 24.33850 34960 ft 471 kts 126°
2026-04-10 05:35 5.20569 24.39104 34960 ft 471 kts 126°
2026-04-10 05:36 5.16652 24.44393 34963 ft 471 kts 127°
2026-04-10 05:36 5.13401 24.48784 34963 ft 471 kts 127°
2026-04-10 05:37 5.08857 24.54924 34957 ft 471 kts 127°
2026-04-10 05:37 5.05606 24.59317 34958 ft 471 kts 127°
2026-04-10 05:38 5.01698 24.64595 34957 ft 471 kts 127°
2026-04-10 05:38 4.97788 24.69874 34957 ft 471 kts 127°
2026-04-10 05:39 4.93884 24.75144 34955 ft 471 kts 127°
2026-04-10 05:39 4.89978 24.80412 34954 ft 471 kts 127°
2026-04-10 05:40 4.86083 24.85658 34956 ft 471 kts 127°
2026-04-10 05:40 4.82166 24.90934 34956 ft 470 kts 127°
2026-04-10 05:41 4.78289 24.96156 34955 ft 468 kts 127°
2026-04-10 05:41 4.74398 25.01396 34956 ft 468 kts 127°
2026-04-10 05:42 4.70501 25.06642 34955 ft 470 kts 127°
2026-04-10 05:42 4.66590 25.11906 34960 ft 470 kts 127°
2026-04-10 05:43 4.62681 25.17133 34956 ft 470 kts 130°
2026-04-10 05:43 4.57906 25.21583 34959 ft 469 kts 144°
2026-04-10 05:44 4.52523 25.25289 34961 ft 469 kts 147°
2026-04-10 05:44 4.47064 25.28827 34962 ft 469 kts 148°
2026-04-10 05:45 4.41575 25.32373 34961 ft 468 kts 147°
2026-04-10 05:45 4.36103 25.35935 34963 ft 469 kts 147°
2026-04-10 05:46 4.30655 25.39498 34964 ft 470 kts 147°
2026-04-10 05:46 4.25164 25.43092 34963 ft 471 kts 147°
2026-04-10 05:47 4.19667 25.46690 34963 ft 470 kts 147°
2026-04-10 05:47 4.14180 25.50278 34963 ft 470 kts 147°
2026-04-10 05:48 4.08726 25.53845 34966 ft 469 kts 147°
2026-04-10 05:48 4.03266 25.57416 34966 ft 468 kts 147°
2026-04-10 05:49 3.97808 25.60983 34966 ft 468 kts 147°
2026-04-10 05:49 3.92386 25.64527 34965 ft 468 kts 147°
2026-04-10 05:50 3.86914 25.68102 34969 ft 469 kts 147°
2026-04-10 05:50 3.81464 25.71663 34969 ft 469 kts 147°
2026-04-10 05:51 3.75984 25.75244 34966 ft 469 kts 147°
2026-04-10 05:51 3.70513 25.78817 34971 ft 469 kts 147°
2026-04-10 05:52 3.65047 25.82387 34971 ft 469 kts 147°
2026-04-10 05:52 3.59611 25.85937 34972 ft 469 kts 147°
2026-04-10 05:53 3.54151 25.89502 34974 ft 468 kts 147°
2026-04-10 05:53 3.48686 25.93070 34974 ft 468 kts 147°
2026-04-10 05:54 3.43216 25.96641 34973 ft 469 kts 147°
2026-04-10 05:54 3.37763 26.00199 34977 ft 471 kts 147°
2026-04-10 05:55 3.32262 26.03789 34977 ft 472 kts 147°
2026-04-10 05:55 3.26753 26.07383 34977 ft 472 kts 147°
2026-04-10 05:56 3.21281 26.10953 34977 ft 472 kts 147°
2026-04-10 05:56 3.15775 26.14544 34977 ft 472 kts 147°
2026-04-10 05:57 3.10297 26.18117 34979 ft 472 kts 147°
2026-04-10 05:57 3.04788 26.21709 34979 ft 471 kts 147°
2026-04-10 05:58 2.99283 26.25299 34984 ft 471 kts 147°
2026-04-10 05:58 2.93780 26.28886 34986 ft 473 kts 147°
2026-04-10 05:59 2.88285 26.32468 34985 ft 474 kts 147°
2026-04-10 05:59 2.82750 26.36076 34988 ft 474 kts 147°
2026-04-10 06:00 2.77212 26.39685 34990 ft 474 kts 147°
2026-04-10 06:00 2.71716 26.43267 34992 ft 474 kts 147°
2026-04-10 06:01 2.66175 26.46877 34991 ft 475 kts 147°
2026-04-10 06:01 2.60627 26.50492 34990 ft 475 kts 147°
2026-04-10 06:02 2.55126 26.54075 34993 ft 475 kts 147°
2026-04-10 06:02 2.49574 26.57691 34993 ft 475 kts 147°
2026-04-10 06:03 2.44027 26.61303 34994 ft 476 kts 147°
2026-04-10 06:03 2.38463 26.64927 34996 ft 476 kts 147°
2026-04-10 06:04 2.32948 26.68518 34993 ft 474 kts 147°
2026-04-10 06:04 2.27417 26.72119 34990 ft 474 kts 147°
2026-04-10 06:05 2.21883 26.75722 34991 ft 474 kts 147°
2026-04-10 06:05 2.16382 26.79303 34990 ft 474 kts 147°
2026-04-10 06:06 2.08078 26.84699 34993 ft 474 kts 148°
2026-04-10 06:07 2.02475 26.88235 34988 ft 475 kts 148°
2026-04-10 06:07 1.96885 26.91720 34988 ft 475 kts 148°
2026-04-10 06:08 1.91265 26.95229 34988 ft 475 kts 148°
2026-04-10 06:08 1.85689 26.98717 34987 ft 474 kts 148°
2026-04-10 06:09 1.80088 27.02225 34991 ft 475 kts 148°
2026-04-10 06:09 1.74481 27.05737 34990 ft 474 kts 148°
2026-04-10 06:10 1.68891 27.09271 34991 ft 474 kts 148°
2026-04-10 06:10 1.63371 27.12823 34990 ft 474 kts 148°
2026-04-10 06:11 1.57809 27.16412 34992 ft 474 kts 148°
2026-04-10 06:11 1.52294 27.19963 34990 ft 475 kts 148°
2026-04-10 06:12 1.46724 27.23544 34993 ft 475 kts 148°
2026-04-10 06:12 1.41158 27.27121 34993 ft 475 kts 148°
2026-04-10 06:13 1.35620 27.30680 34992 ft 476 kts 147°
2026-04-10 06:13 1.30049 27.34261 34993 ft 475 kts 148°
2026-04-10 06:14 1.24490 27.37834 34996 ft 474 kts 148°
2026-04-10 06:14 1.18933 27.41406 34996 ft 474 kts 148°
2026-04-10 06:15 1.13413 27.44953 34997 ft 474 kts 148°
2026-04-10 06:15 1.07865 27.48519 34999 ft 474 kts 148°
2026-04-10 06:16 1.02322 27.52080 34999 ft 473 kts 148°
2026-04-10 06:16 0.96766 27.55622 34999 ft 474 kts 149°
2026-04-10 06:17 0.91141 27.59053 34998 ft 473 kts 149°
2026-04-10 06:17 0.85532 27.62429 35002 ft 474 kts 149°
2026-04-10 06:18 0.79878 27.65842 35002 ft 474 kts 149°
2026-04-10 06:18 0.74226 27.69266 35001 ft 474 kts 149°
2026-04-10 06:19 0.68580 27.72691 35006 ft 474 kts 149°
2026-04-10 06:19 0.62968 27.76094 35007 ft 475 kts 149°
2026-04-10 06:20 0.57335 27.79510 35007 ft 475 kts 149°
2026-04-10 06:20 0.51678 27.82940 35010 ft 476 kts 149°
2026-04-10 06:21 0.45997 27.86386 35009 ft 476 kts 149°
2026-04-10 06:21 0.40367 27.89800 35010 ft 476 kts 149°
2026-04-10 06:22 0.34713 27.93229 35010 ft 476 kts 149°
2026-04-10 06:22 0.29066 27.96710 35009 ft 475 kts 148°
2026-04-10 06:23 0.23458 28.00227 35012 ft 475 kts 148°
2026-04-10 06:23 0.17881 28.03728 35012 ft 475 kts 148°
2026-04-10 06:24 0.13221 28.06648 35012 ft 475 kts 148°
2026-04-10 06:24 0.07588 28.10173 35015 ft 477 kts 148°
2026-04-10 06:25 0.01953 28.13697 35015 ft 477 kts 148°
2026-04-10 06:25 -0.03652 28.17203 35018 ft 477 kts 148°
2026-04-10 06:26 -0.09275 28.20721 35015 ft 476 kts 148°
2026-04-10 06:26 -0.14866 28.24218 35018 ft 476 kts 148°
2026-04-10 06:27 -0.20486 28.27734 35018 ft 476 kts 148°
2026-04-10 06:27 -0.26106 28.31250 35023 ft 476 kts 148°
2026-04-10 06:28 -0.31686 28.34741 35028 ft 476 kts 148°
2026-04-10 06:28 -0.37310 28.38259 35026 ft 476 kts 149°
2026-04-10 06:29 -0.42927 28.41773 35030 ft 476 kts 149°
2026-04-10 06:29 -0.48544 28.45287 35040 ft 476 kts 149°
2026-04-10 06:30 -0.54123 28.48777 35041 ft 476 kts 149°
2026-04-10 06:30 -0.59747 28.52295 35043 ft 476 kts 149°
2026-04-10 06:31 -0.65363 28.55809 35056 ft 476 kts 149°
2026-04-10 06:31 -0.70950 28.59304 35061 ft 475 kts 148°
2026-04-10 06:32 -0.76560 28.62814 35062 ft 475 kts 148°
2026-04-10 06:32 -0.82175 28.66327 35069 ft 475 kts 148°
2026-04-10 06:33 -0.87772 28.69830 35082 ft 473 kts 149°
2026-04-10 06:33 -0.93319 28.73301 35081 ft 472 kts 149°
2026-04-10 06:34 -0.98900 28.76793 35087 ft 473 kts 149°
2026-04-10 06:34 -1.04485 28.80288 35100 ft 474 kts 149°
2026-04-10 06:35 -1.10097 28.83799 35106 ft 476 kts 149°
2026-04-10 06:35 -1.15673 28.87288 35106 ft 476 kts 149°
2026-04-10 06:36 -1.21292 28.90804 35129 ft 476 kts 149°
2026-04-10 06:36 -1.26910 28.94320 35131 ft 476 kts 149°
2026-04-10 06:37 -1.32524 28.97833 35130 ft 475 kts 148°
2026-04-10 06:37 -1.38087 29.01315 35146 ft 476 kts 149°
2026-04-10 06:38 -1.43567 29.05057 35157 ft 478 kts 144°
2026-04-10 06:38 -1.48850 29.09114 34801 ft 479 kts 143°
2026-04-10 06:38 -1.51490 29.11180 33935 ft 485 kts 143°
2026-04-10 06:39 -1.54169 29.13284 33017 ft 492 kts 143°
2026-04-10 06:39 -1.56871 29.15409 32180 ft 494 kts 142°
2026-04-10 06:39 -1.59544 29.17510 31387 ft 496 kts 141°
2026-04-10 06:39 -1.62269 29.19651 30697 ft 496 kts 141°
2026-04-10 06:40 -1.64905 29.21849 30132 ft 490 kts 134°
2026-04-10 06:40 -1.67119 29.24418 29483 ft 485 kts 123°
2026-04-10 06:40 -1.68750 29.27331 28940 ft 477 kts 111°
2026-04-10 06:40 -1.69893 29.30419 28363 ft 470 kts 107°
2026-04-10 06:41 -1.70906 29.33518 27802 ft 465 kts 107°
2026-04-10 06:41 -1.71875 29.36554 27272 ft 461 kts 106°
2026-04-10 06:41 -1.72841 29.39586 26727 ft 456 kts 107°
2026-04-10 06:41 -1.73804 29.42608 26172 ft 452 kts 106°
2026-04-10 06:42 -1.74756 29.45592 25620 ft 448 kts 106°
2026-04-10 06:42 -1.75588 29.48577 25081 ft 444 kts 101°
2026-04-10 06:42 -1.76206 29.51585 24539 ft 440 kts 99°
2026-04-10 06:42 -1.76770 29.54553 24015 ft 437 kts 99°
2026-04-10 06:43 -1.77329 29.57525 23406 ft 434 kts 99°
2026-04-10 06:43 -1.77887 29.60483 22852 ft 429 kts 99°
2026-04-10 06:43 -1.78440 29.63405 22313 ft 424 kts 99°
2026-04-10 06:43 -1.78988 29.66288 21778 ft 420 kts 99°
2026-04-10 06:44 -1.79531 29.69146 21255 ft 416 kts 99°
2026-04-10 06:44 -1.80062 29.71937 20742 ft 412 kts 99°
2026-04-10 06:44 -1.80597 29.74745 20226 ft 408 kts 99°
2026-04-10 06:44 -1.81124 29.77513 19713 ft 404 kts 99°
2026-04-10 06:45 -1.81648 29.80269 19206 ft 401 kts 99°
2026-04-10 06:45 -1.82167 29.82999 18700 ft 398 kts 99°
2026-04-10 06:45 -1.82682 29.85703 18152 ft 394 kts 99°
2026-04-10 06:45 -1.83192 29.88383 17633 ft 389 kts 99°
2026-04-10 06:46 -1.83690 29.90998 17151 ft 384 kts 99°
2026-04-10 06:46 -1.84187 29.93610 16657 ft 379 kts 99°
2026-04-10 06:46 -1.84677 29.96190 16179 ft 374 kts 99°
2026-04-10 06:46 -1.85162 29.98734 15698 ft 371 kts 99°
2026-04-10 06:47 -1.85642 30.01258 15220 ft 367 kts 99°
2026-04-10 06:47 -1.86117 30.03754 14742 ft 364 kts 99°
2026-04-10 06:47 -1.86589 30.06228 14285 ft 361 kts 99°
2026-04-10 06:47 -1.87050 30.08655 13792 ft 358 kts 99°
2026-04-10 06:48 -1.87514 30.11094 13293 ft 354 kts 99°
2026-04-10 06:48 -1.87971 30.13501 12837 ft 350 kts 99°
2026-04-10 06:48 -1.88420 30.15881 12422 ft 346 kts 99°
2026-04-10 06:48 -1.88749 30.18253 12200 ft 338 kts 96°
2026-04-10 06:49 -1.88985 30.20536 11809 ft 325 kts 95°
2026-04-10 06:49 -1.89199 30.22764 11419 ft 319 kts 95°
2026-04-10 06:49 -1.89408 30.24947 11029 ft 309 kts 95°
2026-04-10 06:49 -1.89605 30.27012 10596 ft 296 kts 96°
2026-04-10 06:50 -1.89799 30.29024 10143 ft 284 kts 96°
2026-04-10 06:50 -1.89986 30.30960 9675 ft 274 kts 97°
2026-04-10 06:50 -1.90329 30.32799 9318 ft 261 kts 110°
2026-04-10 06:50 -1.91262 30.34274 8867 ft 247 kts 136°
2026-04-10 06:51 -1.92732 30.35136 8496 ft 248 kts 161°
2026-04-10 06:51 -1.94410 30.35450 8277 ft 247 kts 171°
2026-04-10 06:51 -1.96090 30.35573 8105 ft 236 kts 179°
2026-04-10 06:51 -1.97683 30.35267 7815 ft 235 kts 200°
2026-04-10 06:52 -1.98988 30.34283 7515 ft 240 kts 232°
2026-04-10 06:52 -1.99631 30.32747 7460 ft 242 kts 254°
2026-04-10 06:52 -1.99839 30.31065 7467 ft 246 kts 269°
2026-04-10 06:52 -1.99599 30.29406 7459 ft 234 kts 279°
2026-04-10 06:53 -1.99274 30.27857 7382 ft 223 kts 277°
2026-04-10 06:53 -1.99025 30.26362 7109 ft 213 kts 276°
2026-04-10 06:53 -1.98786 30.24953 6845 ft 204 kts 276°
2026-04-10 06:53 -1.98546 30.23592 6586 ft 192 kts 276°
2026-04-10 06:54 -1.98323 30.22313 6338 ft 180 kts 275°
2026-04-10 06:54 -1.98113 30.21110 6069 ft 170 kts 275°
2026-04-10 06:54 -1.97918 30.19968 5878 ft 164 kts 274°
2026-04-10 06:54 -1.97727 30.18872 5602 ft 158 kts 274°
2026-04-10 06:55 -1.97547 30.17797 5347 ft 157 kts 275°
2026-04-10 06:55 -1.97356 30.16741 5159 ft 153 kts 275°
2026-04-10 06:55 -1.97173 30.15689 4982 ft 154 kts 274°
2026-04-10 06:55 -1.96992 30.14649 4880 ft 138 kts 281°
2026-04-10 06:56 -1.96859 30.13907 4886 ft 82 kts 280°
2026-04-10 06:56 -1.96795 30.13545 4889 ft 24 kts 280°
2026-04-10 06:56 -1.96768 30.13392 4886 ft 18 kts 282°
2026-04-10 06:56 -1.96700 30.13358 4889 ft 12 kts
2026-04-10 06:57 -1.96630 30.13374 4887 ft 7 kts 31°
2026-04-10 06:57 -1.96610 30.13409 4887 ft 8 kts 80°
2026-04-10 06:57 -1.96609 30.13466 4891 ft 8 kts 77°
2026-04-10 06:57 -1.96573 30.13498 4893 ft 7 kts 18°
2026-04-10 06:58 -1.96530 30.13489 4887 ft 6 kts 330°
2026-04-10 06:58 -1.96491 30.13463 4886 ft 7 kts 326°
2026-04-10 06:58 -1.96477 30.13454 4888 ft 1 kts 325°
2026-04-10 06:58 -1.96467 30.13447 4886 ft 2 kts 325°
2026-04-10 06:59 -1.96457 30.13439 4887 ft 0 kts 325°
2026-04-10 07:02 -1.96457 30.13440 4895 ft 0 kts 325°
2026-04-10 07:13 -1.96458 30.13440 4895 ft 0 kts 325°